Darstellungsparameter: Aktuell verwendete Einstellungen:
Skalierung der Graphiken ... ?
xyx+y,   Skalierungsfaktor:      Skalierung: Modus: x, Faktor: 1
Darstellungszeitraum ... ?
Vom - - bis: - -   Zeitraum: 21.09.2010 - 22.09.2010
Min/Max/Avg-Anzeige ... ?
Zeige MMA aktuell
Zeige MMA Monat
Zeige MMA alles
Zeige --A aktuell
Zeige --A Monat
Zeige --A alles
Keine MMA-Anzeige
MMA:
Average (ber die Originaldaten)
MMA-Basis: 21.09.2010 - 22.09.2010
Quicknavigation für Darstellung... ?
Tage:      1T, 2T, 3T, 5T -1T -2T -3T -5T +1T +2T +3T +5T
Wochen: 1W, 2W, 3W -1W -2W -3W +1W +2W +3W
Monate: 1M, 3M, 6M -1M -3M -6M +1M +3M +6M
Jahre:    1J, 3J, 5J, 10J -1J -3J -5J -10J +1J +3J +5J +10J
Nutze für die Darstellung ... ?
Originaldaten oder Mittelwerte auf ...
Stundenbasis Tagesbasis Wochenbasis
Monatsbasis Jahresbasis      Datenbasis: Original-Daten
Darstellen als:
Statistik (Auto) Statistik J:M      Darstellung:
Zur Graphik,    zurück zur Übersicht aller Sensoren.
 
Tabellarische Datenbersicht: ?
 
Sensor: Nr:Datum:Temp:Abs-Feuchte:Windchill:Wind:
Aussen-T/F 1 21-09-2010 00:06:03 11.8 C 7.89 g/m*3 11.8 C 0 km/h
2 21-09-2010 00:18:03 11.6 C 7.9 g/m*3 11.6 C 0 km/h
3 21-09-2010 00:30:03 11.5 C 7.85 g/m*3 11.5 C 0 km/h
4 21-09-2010 00:42:03 11.4 C 7.9 g/m*3 11.4 C 0 km/h
5 21-09-2010 00:54:03 11.3 C 7.85 g/m*3 11.3 C 0 km/h
6 21-09-2010 01:06:03 11.2 C 7.8 g/m*3 11.2 C 0 km/h
7 21-09-2010 01:18:03 11.1 C 7.86 g/m*3 11.1 C 0 km/h
8 21-09-2010 01:30:03 10.9 C 7.86 g/m*3 10.9 C 0 km/h
9 21-09-2010 01:42:03 10.8 C 7.81 g/m*3 10.8 C 0 km/h
10 21-09-2010 01:54:03 10.5 C 7.66 g/m*3 10.5 C 0 km/h
11 21-09-2010 02:06:03 10.4 C 7.71 g/m*3 10.4 C 0 km/h
12 21-09-2010 02:18:03 10.4 C 7.71 g/m*3 10.4 C 0 km/h
13 21-09-2010 02:30:03 10.3 C 7.76 g/m*3 10.3 C 0 km/h
14 21-09-2010 02:42:03 10.1 C 7.66 g/m*3 10.1 C 0 km/h
15 21-09-2010 02:54:03 10 C 7.61 g/m*3 10 C 0 km/h
16 21-09-2010 03:06:03 10 C 7.71 g/m*3 10 C 0 km/h
17 21-09-2010 03:18:03 9.9 C 7.75 g/m*3 9.9 C 0 km/h
18 21-09-2010 03:30:03 9.8 C 7.79 g/m*3 9.8 C 0 km/h
19 21-09-2010 03:42:03 9.5 C 7.65 g/m*3 9.5 C 0 km/h
20 21-09-2010 03:54:03 9.5 C 7.65 g/m*3 9.5 C 0 km/h
21 21-09-2010 04:06:04 9.4 C 7.6 g/m*3 9.4 C 0 km/h
22 21-09-2010 04:18:04 9.3 C 7.55 g/m*3 9.3 C 0 km/h
23 21-09-2010 04:30:04 9.2 C 7.5 g/m*3 9.2 C 0 km/h
24 21-09-2010 04:42:04 9.2 C 7.5 g/m*3 9.2 C 0 km/h
25 21-09-2010 04:54:04 9 C 7.41 g/m*3 9 C 0 km/h
Sensor: Nr:Datum:Temp:Abs-Feuchte:Windchill:Wind:
Aussen-T/F 26 21-09-2010 05:06:04 9 C 7.49 g/m*3 9 C 0 km/h
27 21-09-2010 05:18:04 8.8 C 7.49 g/m*3 8.8 C 0 km/h
28 21-09-2010 05:30:04 8.8 C 7.49 g/m*3 8.8 C 0 km/h
29 21-09-2010 05:42:04 8.7 C 7.44 g/m*3 8.7 C 0 km/h
30 21-09-2010 05:54:04 8.6 C 7.39 g/m*3 8.6 C 0 km/h
31 21-09-2010 06:06:04 8.5 C 7.43 g/m*3 8.5 C 0 km/h
32 21-09-2010 06:18:04 8.4 C 7.38 g/m*3 8.4 C 0 km/h
33 21-09-2010 06:30:04 8.3 C 7.33 g/m*3 8.3 C 0 km/h
34 21-09-2010 06:42:04 8.2 C 7.29 g/m*3 8.2 C 0 km/h
35 21-09-2010 06:54:04 8.3 C 7.42 g/m*3 8.3 C 0 km/h
36 21-09-2010 07:06:02 8.2 C 7.37 g/m*3 8.2 C 0 km/h
37 21-09-2010 07:18:02 8.2 C 7.37 g/m*3 8.2 C 0 km/h
38 21-09-2010 07:30:02 8.1 C 7.32 g/m*3 8.1 C 0 km/h
39 21-09-2010 07:42:03 8.1 C 7.32 g/m*3 8.1 C 0 km/h
40 21-09-2010 07:54:02 8.1 C 7.32 g/m*3 8.1 C 0 km/h
41 21-09-2010 08:06:01 8 C 7.36 g/m*3 8 C 0 km/h
42 21-09-2010 08:18:02 8.1 C 7.41 g/m*3 8.1 C 0 km/h
43 21-09-2010 08:30:02 8.2 C 7.54 g/m*3 8.2 C 0 km/h
44 21-09-2010 08:42:02 8.4 C 7.63 g/m*3 8.4 C 0 km/h
45 21-09-2010 08:54:02 8.6 C 7.73 g/m*3 8.6 C 0 km/h
46 21-09-2010 09:06:02 8.7 C 7.78 g/m*3 8.7 C 0 km/h
47 21-09-2010 09:18:02 8.9 C 7.88 g/m*3 8.9 C 0 km/h
48 21-09-2010 09:30:02 9.3 C 8 g/m*3 9.3 C 0 km/h
49 21-09-2010 09:42:02 9.5 C 8.1 g/m*3 9.5 C 0 km/h
50 21-09-2010 09:54:01 9.5 C 8.1 g/m*3 9.5 C 0 km/h
Sensor: Nr:Datum:Temp:Abs-Feuchte:Windchill:Wind:
Aussen-T/F 51 21-09-2010 10:06:02 9.9 C 8.31 g/m*3 9.9 C 0 km/h
52 21-09-2010 10:18:01 10.5 C 8.53 g/m*3 10.5 C 0 km/h
53 21-09-2010 10:30:01 11.1 C 8.76 g/m*3 11.1 C 0 km/h
54 21-09-2010 10:42:01 11.7 C 8.99 g/m*3 11.7 C 0 km/h
55 21-09-2010 10:54:01 12.4 C 8.96 g/m*3 12.4 C 0 km/h
56 21-09-2010 11:06:01 13 C 8.51 g/m*3 13 C 0 km/h
57 21-09-2010 11:18:02 13.6 C 8.59 g/m*3 13.6 C 0 km/h
58 21-09-2010 11:30:02 14 C 8.56 g/m*3 14 C 0 km/h
59 21-09-2010 11:42:01 14.7 C 8.81 g/m*3 14.7 C 0 km/h
60 21-09-2010 11:54:03 15.3 C 8.75 g/m*3 15.3 C 0 km/h
61 21-09-2010 12:06:02 15.8 C 8.75 g/m*3 15.8 C 0 km/h
62 21-09-2010 12:18:02 16.5 C 8.85 g/m*3 16.5 C 0 km/h
63 21-09-2010 12:30:03 16.5 C 9.13 g/m*3 16.5 C 0 km/h
64 21-09-2010 12:42:02 16 C 8.86 g/m*3 16 C 0 km/h
65 21-09-2010 12:54:02 15.9 C 9.34 g/m*3 15.9 C 0 km/h
66 21-09-2010 13:06:02 16.4 C 9.77 g/m*3 16.4 C 0 km/h
67 21-09-2010 13:18:02 16.6 C 9.46 g/m*3 16.6 C 0 km/h
68 21-09-2010 13:30:02 16.8 C 9.72 g/m*3 16.8 C 0 km/h
69 21-09-2010 13:42:02 17.3 C 9.87 g/m*3 17.3 C 0 km/h
70 21-09-2010 13:54:02 18 C 9.37 g/m*3 18 C 0 km/h
71 21-09-2010 14:06:02 17.5 C 9.54 g/m*3 17.5 C 0 km/h
72 21-09-2010 14:18:01 17.4 C 9.63 g/m*3 17.4 C 0 km/h
73 21-09-2010 14:30:01 17.2 C 9.52 g/m*3 17.2 C 0 km/h
74 21-09-2010 14:42:02 17.5 C 9.54 g/m*3 17.5 C 0 km/h
75 21-09-2010 14:54:02 19.5 C 9.06 g/m*3 19.5 C 0 km/h
Sensor: Nr:Datum:Temp:Abs-Feuchte:Windchill:Wind:
Aussen-T/F 76 21-09-2010 15:06:02 21.3 C 8.76 g/m*3 21.3 C 0 km/h
77 21-09-2010 15:18:02 22.6 C 8.44 g/m*3 22.6 C 0 km/h
78 21-09-2010 15:30:02 23.3 C 7.95 g/m*3 23.3 C 0 km/h
79 21-09-2010 15:42:02 23.9 C 7.79 g/m*3 23.9 C 0 km/h
80 21-09-2010 15:54:02 24.5 C 7.83 g/m*3 24.5 C 0 km/h
81 21-09-2010 16:06:02 25 C 7.6 g/m*3 25 C 0 km/h
82 21-09-2010 16:18:02 25.2 C 7.45 g/m*3 25.2 C 0 km/h
83 21-09-2010 16:30:02 25.2 C 7.68 g/m*3 25.2 C 0 km/h
84 21-09-2010 16:42:02 25.1 C 7.87 g/m*3 25.1 C 0 km/h
85 21-09-2010 16:54:02 25.3 C 7.49 g/m*3 25.3 C 0 km/h
86 21-09-2010 17:06:02 25.4 C 7.53 g/m*3 25.4 C 0 km/h
87 21-09-2010 17:18:02 25.5 C 7.81 g/m*3 25.5 C 0 km/h
88 21-09-2010 17:30:02 24.5 C 7.39 g/m*3 24.5 C 0 km/h
89 21-09-2010 17:42:02 24.1 C 7.44 g/m*3 24.1 C 0 km/h
90 21-09-2010 17:54:02 23.5 C 7.61 g/m*3 23.5 C 0 km/h
91 21-09-2010 18:06:02 23.2 C 7.69 g/m*3 23.2 C 0 km/h
92 21-09-2010 18:18:02 22.7 C 7.88 g/m*3 22.7 C 0 km/h
93 21-09-2010 18:30:02 22.2 C 7.85 g/m*3 22.2 C 0 km/h
94 21-09-2010 18:42:02 21.7 C 8.01 g/m*3 21.7 C 0 km/h
95 21-09-2010 18:54:02 21.1 C 7.92 g/m*3 21.1 C 0 km/h
96 21-09-2010 19:06:01 20.2 C 8.04 g/m*3 20.2 C 0 km/h
97 21-09-2010 19:18:02 19.5 C 8.22 g/m*3 19.5 C 0 km/h
98 21-09-2010 19:30:02 18.5 C 8.39 g/m*3 18.5 C 0 km/h
99 21-09-2010 19:42:02 17.8 C 8.5 g/m*3 17.8 C 0 km/h
100 21-09-2010 19:54:02 17.2 C 8.49 g/m*3 17.2 C 0 km/h
Sensor: Nr:Datum:Temp:Abs-Feuchte:Windchill:Wind:
Aussen-T/F 101 21-09-2010 20:06:03 16.8 C 8.58 g/m*3 16.8 C 0 km/h
102 21-09-2010 20:18:02 16.5 C 8.43 g/m*3 16.5 C 0 km/h
103 21-09-2010 20:30:02 16.3 C 8.46 g/m*3 16.3 C 0 km/h
104 21-09-2010 20:42:02 16.1 C 8.5 g/m*3 16.1 C 0 km/h
105 21-09-2010 20:54:02 15.8 C 8.62 g/m*3 15.8 C 0 km/h
106 21-09-2010 21:06:02 15.6 C 8.51 g/m*3 15.6 C 0 km/h
107 21-09-2010 21:18:01 15.4 C 8.41 g/m*3 15.4 C 0 km/h
108 21-09-2010 21:30:01 15.1 C 8.51 g/m*3 15.1 C 0 km/h
109 21-09-2010 21:42:02 14.7 C 8.56 g/m*3 14.7 C 0 km/h
110 21-09-2010 21:54:02 14.5 C 8.46 g/m*3 14.5 C 0 km/h
111 21-09-2010 22:06:02 14.4 C 8.53 g/m*3 14.4 C 0 km/h
112 21-09-2010 22:18:01 14.1 C 8.5 g/m*3 14.1 C 0 km/h
113 21-09-2010 22:30:01 13.9 C 8.51 g/m*3 13.9 C 0 km/h
114 21-09-2010 22:42:01 13.6 C 8.47 g/m*3 13.6 C 0 km/h
115 21-09-2010 22:54:01 13.5 C 8.54 g/m*3 13.5 C 0 km/h
116 21-09-2010 23:06:01 13.2 C 8.38 g/m*3 13.2 C 0 km/h
117 21-09-2010 23:18:01 13.1 C 8.44 g/m*3 13.1 C 0 km/h
118 21-09-2010 23:30:01 13 C 8.51 g/m*3 13 C 0 km/h
119 21-09-2010 23:42:01 12.9 C 8.68 g/m*3 12.9 C 0 km/h
120 21-09-2010 23:54:01 12.7 C 8.68 g/m*3 12.7 C 0 km/h
121 22-09-2010 00:06:01 12.5 C 8.69 g/m*3 12.5 C 0 km/h
122 22-09-2010 00:18:01 12.3 C 8.58 g/m*3 12.3 C 0 km/h
123 22-09-2010 00:30:01 12.2 C 8.52 g/m*3 12.2 C 0 km/h
124 22-09-2010 00:42:01 12.1 C 8.47 g/m*3 12.1 C 0 km/h
125 22-09-2010 00:54:01 11.9 C 8.47 g/m*3 11.9 C 0 km/h
Sensor: Nr:Datum:Temp:Abs-Feuchte:Windchill:Wind:
Aussen-T/F 126 22-09-2010 01:06:02 11.8 C 8.53 g/m*3 11.8 C 0 km/h
127 22-09-2010 01:18:02 11.6 C 8.42 g/m*3 11.6 C 0 km/h
128 22-09-2010 01:30:02 11.5 C 8.47 g/m*3 11.5 C 0 km/h
129 22-09-2010 01:42:02 11.3 C 8.26 g/m*3 11.3 C 0 km/h
130 22-09-2010 01:54:02 11.3 C 8.36 g/m*3 11.3 C 0 km/h
131 22-09-2010 02:06:02 11 C 8.21 g/m*3 11 C 0 km/h
132 22-09-2010 02:18:02 10.9 C 8.16 g/m*3 10.9 C 0 km/h
133 22-09-2010 02:30:02 10.8 C 8.2 g/m*3 10.8 C 0 km/h
134 22-09-2010 02:42:02 10.7 C 8.15 g/m*3 10.7 C 0 km/h
135 22-09-2010 02:54:02 10.5 C 8.05 g/m*3 10.5 C 0 km/h
136 22-09-2010 03:06:02 10.4 C 8 g/m*3 10.4 C 0 km/h
137 22-09-2010 03:18:02 10.4 C 8 g/m*3 10.4 C 0 km/h
138 22-09-2010 03:30:02 10.3 C 8.04 g/m*3 10.3 C 0 km/h
139 22-09-2010 03:42:02 10.1 C 7.94 g/m*3 10.1 C 0 km/h
140 22-09-2010 03:54:02 9.9 C 8.03 g/m*3 9.9 C 0 km/h
141 22-09-2010 04:06:02 9.9 C 8.03 g/m*3 9.9 C 0 km/h
142 22-09-2010 04:18:02 9.7 C 7.93 g/m*3 9.7 C 0 km/h
143 22-09-2010 04:30:02 9.6 C 7.79 g/m*3 9.6 C 0 km/h
144 22-09-2010 04:42:02 9.6 C 7.88 g/m*3 9.6 C 0 km/h
145 22-09-2010 04:54:02 9.8 C 8.07 g/m*3 9.8 C 0 km/h
146 22-09-2010 05:06:02 9.8 C 8.07 g/m*3 9.8 C 0 km/h
147 22-09-2010 05:18:02 9.9 C 8.22 g/m*3 9.9 C 0 km/h
148 22-09-2010 05:30:03 9.9 C 8.22 g/m*3 9.9 C 0 km/h
149 22-09-2010 05:42:03 9.9 C 8.22 g/m*3 9.9 C 0 km/h
150 22-09-2010 05:54:03 9.7 C 8.02 g/m*3 9.7 C 0 km/h
Sensor: Nr:Datum:Temp:Abs-Feuchte:Windchill:Wind:
Aussen-T/F 151 22-09-2010 06:06:03 9.8 C 8.16 g/m*3 9.8 C 0 km/h
152 22-09-2010 06:18:03 9.8 C 8.16 g/m*3 9.8 C 0 km/h
153 22-09-2010 06:30:03 9.8 C 8.16 g/m*3 9.8 C 0 km/h
154 22-09-2010 06:42:03 9.7 C 8.11 g/m*3 9.7 C 0 km/h
155 22-09-2010 06:54:03 9.8 C 8.16 g/m*3 9.8 C 0 km/h
156 22-09-2010 07:06:01 9.8 C 8.16 g/m*3 9.8 C 0 km/h
157 22-09-2010 07:18:02 9.8 C 8.16 g/m*3 9.8 C 0 km/h
158 22-09-2010 07:30:02 9.6 C 8.06 g/m*3 9.6 C 0 km/h
159 22-09-2010 07:42:01 9.3 C 7.91 g/m*3 9.3 C 0 km/h
160 22-09-2010 07:54:01 9.3 C 7.91 g/m*3 9.3 C 0 km/h
161 22-09-2010 08:06:01 9.3 C 7.91 g/m*3 9.3 C 0 km/h
162 22-09-2010 08:18:02 9.3 C 7.91 g/m*3 9.3 C 0 km/h
163 22-09-2010 08:30:02 9.6 C 8.15 g/m*3 9.6 C 0 km/h
164 22-09-2010 08:42:01 9.3 C 7.91 g/m*3 9.3 C 0 km/h
165 22-09-2010 08:54:02 9.3 C 7.91 g/m*3 9.3 C 0 km/h
166 22-09-2010 09:06:01 9.6 C 8.06 g/m*3 9.6 C 0 km/h
167 22-09-2010 09:18:02 9.8 C 8.16 g/m*3 9.8 C 0 km/h
168 22-09-2010 09:30:02 10.2 C 8.09 g/m*3 10.2 C 0 km/h
169 22-09-2010 09:42:01 10.3 C 8.04 g/m*3 10.3 C 0 km/h
170 22-09-2010 09:54:02 11 C 8.41 g/m*3 11 C 0 km/h
171 22-09-2010 10:06:01 11.8 C 8.63 g/m*3 11.8 C 0 km/h
172 22-09-2010 10:18:01 12.4 C 8.74 g/m*3 12.4 C 0 km/h
173 22-09-2010 10:30:01 12 C 8.31 g/m*3 12 C 0 km/h
174 22-09-2010 10:42:02 12.7 C 8.79 g/m*3 12.7 C 0 km/h
175 22-09-2010 10:54:01 13.2 C 8.73 g/m*3 13.2 C 0 km/h
Sensor: Nr:Datum:Temp:Abs-Feuchte:Windchill:Wind:
Aussen-T/F 176 22-09-2010 11:06:02 12.9 C 8.68 g/m*3 12.9 C 0 km/h
177 22-09-2010 11:18:01 13.1 C 8.9 g/m*3 13.1 C 0 km/h
178 22-09-2010 11:30:01 13.6 C 9.3 g/m*3 13.6 C 0 km/h
179 22-09-2010 11:42:02 14.2 C 9.52 g/m*3 14.2 C 0 km/h
180 22-09-2010 11:54:01 15.1 C 9.55 g/m*3 15.1 C 0 km/h
181 22-09-2010 12:06:02 15.6 C 9.71 g/m*3 15.6 C 0 km/h
182 22-09-2010 12:18:01 16 C 9.67 g/m*3 16 C 0 km/h
183 22-09-2010 12:30:01 16.5 C 9.97 g/m*3 16.5 C 0 km/h
184 22-09-2010 12:42:01 17.1 C 10.19 g/m*3 17.1 C 0 km/h
185 22-09-2010 12:54:01 17.5 C 10.29 g/m*3 17.5 C 0 km/h
186 22-09-2010 13:06:01 18.4 C 9.91 g/m*3 18.4 C 0 km/h
187 22-09-2010 13:18:02 19.1 C 9.84 g/m*3 19.1 C 0 km/h
188 22-09-2010 13:30:02 19.7 C 10.19 g/m*3 19.7 C 0 km/h
189 22-09-2010 13:42:01 20.4 C 10.26 g/m*3 20.4 C 0 km/h
190 22-09-2010 13:54:01 21.2 C 10.19 g/m*3 21.2 C 0 km/h
191 22-09-2010 14:06:01 21.8 C 10.36 g/m*3 21.8 C 0 km/h
192 22-09-2010 14:18:02 22.2 C 10.01 g/m*3 22.2 C 0 km/h
193 22-09-2010 14:30:02 22.9 C 10.22 g/m*3 22.9 C 0 km/h
194 22-09-2010 14:42:01 23.4 C 9.88 g/m*3 23.4 C 0 km/h
195 22-09-2010 14:54:02 24 C 9.79 g/m*3 24 C 0 km/h
196 22-09-2010 15:06:01 24.2 C 9.9 g/m*3 24.2 C 0 km/h
197 22-09-2010 15:18:01 24.1 C 9.63 g/m*3 24.1 C 0 km/h
198 22-09-2010 15:30:01 24.9 C 9.61 g/m*3 24.9 C 0 km/h
199 22-09-2010 15:42:01 25.6 C 8.81 g/m*3 25.6 C 0 km/h
200 22-09-2010 15:54:01 26.5 C 8.26 g/m*3 26.5 C 0 km/h
Sensor: Nr:Datum:Temp:Abs-Feuchte:Windchill:Wind:
Aussen-T/F 201 22-09-2010 16:06:01 26.9 C 8.7 g/m*3 26.9 C 0 km/h
202 22-09-2010 16:18:01 27.1 C 8.8 g/m*3 27.1 C 0 km/h
203 22-09-2010 16:30:01 27.4 C 8.68 g/m*3 27.4 C 0 km/h
204 22-09-2010 16:42:02 27.6 C 8.51 g/m*3 27.6 C 0 km/h
205 22-09-2010 16:54:01 27.6 C 8.25 g/m*3 27.6 C 0 km/h
206 22-09-2010 17:06:02 27.3 C 7.85 g/m*3 27.3 C 0 km/h
207 22-09-2010 17:18:01 27.4 C 8.16 g/m*3 27.4 C 0 km/h
208 22-09-2010 17:30:01 27.2 C 8.07 g/m*3 27.2 C 0 km/h
209 22-09-2010 17:42:01 26.9 C 7.93 g/m*3 26.9 C 0 km/h
210 22-09-2010 17:54:01 26.5 C 8.76 g/m*3 26.5 C 0 km/h
211 22-09-2010 18:06:02 26.1 C 8.81 g/m*3 26.1 C 0 km/h
212 22-09-2010 18:18:01 25.6 C 9.05 g/m*3 25.6 C 0 km/h
213 22-09-2010 18:30:01 25.3 C 9.36 g/m*3 25.3 C 0 km/h
214 22-09-2010 18:42:01 24.1 C 8.97 g/m*3 24.1 C 0 km/h
215 22-09-2010 18:54:01 23.3 C 9.2 g/m*3 23.3 C 0 km/h
216 22-09-2010 19:06:01 22.5 C 9.19 g/m*3 22.5 C 0 km/h
217 22-09-2010 19:18:02 21.8 C 9.4 g/m*3 21.8 C 0 km/h
218 22-09-2010 19:30:02 20.6 C 9.31 g/m*3 20.6 C 0 km/h
219 22-09-2010 19:42:01 20 C 8.99 g/m*3 20 C 0 km/h
220 22-09-2010 19:54:01 19.5 C 9.06 g/m*3 19.5 C 0 km/h
221 22-09-2010 20:06:01 19 C 9.13 g/m*3 19 C 0 km/h
222 22-09-2010 20:18:02 18.7 C 9.13 g/m*3 18.7 C 0 km/h
223 22-09-2010 20:30:02 18.5 C 9.02 g/m*3 18.5 C 0 km/h
224 22-09-2010 20:42:01 18.4 C 9.12 g/m*3 18.4 C 0 km/h
225 22-09-2010 20:54:02 18.1 C 9.12 g/m*3 18.1 C 0 km/h
Sensor: Nr:Datum:Temp:Abs-Feuchte:Windchill:Wind:
Aussen-T/F 226 22-09-2010 21:06:01 17.9 C 9.31 g/m*3 17.9 C 0 km/h
227 22-09-2010 21:18:01 17.6 C 9.45 g/m*3 17.6 C 0 km/h
228 22-09-2010 21:30:01 17.5 C 9.24 g/m*3 17.5 C 0 km/h
229 22-09-2010 21:42:01 17.3 C 9.28 g/m*3 17.3 C 0 km/h
230 22-09-2010 21:54:01 17 C 9.26 g/m*3 17 C 0 km/h
231 22-09-2010 22:08:02 16.8 C 9.29 g/m*3 16.8 C 0 km/h
232 22-09-2010 22:20:02 16.4 C 9.35 g/m*3 16.4 C 0 km/h
233 22-09-2010 22:32:02 16.1 C 9.32 g/m*3 16.1 C 0 km/h
234 22-09-2010 22:44:02 15.9 C 9.21 g/m*3 15.9 C 0 km/h
235 22-09-2010 22:56:02 15.7 C 9.1 g/m*3 15.7 C 0 km/h
236 22-09-2010 23:08:02 15.4 C 8.8 g/m*3 15.4 C 0 km/h
237 22-09-2010 23:20:02 15.1 C 8.77 g/m*3 15.1 C 0 km/h
238 22-09-2010 23:32:02 14.9 C 8.79 g/m*3 14.9 C 0 km/h
239 22-09-2010 23:44:02 14.7 C 8.81 g/m*3 14.7 C 0 km/h
240 22-09-2010 23:56:02 14.5 C 8.71 g/m*3 14.5 C 0 km/h

Legende:
   Min
   Max


Maximal/Minimal-Werte vom 21.09.2010 - 22.09.2010

Sensor Min Max Avg
Temp
(Aussen-T/F)
8 °C
21-09-2010  08:06:01
27.6 °C
22-09-2010  16:42:02
15.07 °C
Abs-Feuchte
(Aussen-T/F)
7.29 g/m*3
21-09-2010  06:42:04
10.36 g/m*3
22-09-2010  14:06:01
8.41 g/m*3
Windchill
(Aussen-T/F)
8 C
21-09-2010  08:06:01
27.6 C
22-09-2010  16:42:02
15.01 C

Die Daten stammen von einer Davis Vantage Pro 2 Wetter-Station und werden unter Linux mit der Software wview2wettercgi und aufbereitet. Alle Angaben erfolgen ohne Gewähr für ihre Vollständigkeit oder Richtigkeit.
Kontakt: Rainer Krienke krienke@uni-koblenz.de . Meine Webseiten an der Uni Koblenz oder privat.
Version: $Revision: 0.78 $